Time;durP1;ratioP1;P1;durP2;ratioP2;P2;SDS_P1;SDS_P2;PMS_P1;PMS_P2;Temp;Humidity;BMP_temperature;BMP_pressure;BME280_temperature;BME280_humidity;BME280_pressure;Samples;Min_cycle;Max_cycle;Signal;HPM_P1;HPM_P2
2021/05/31 00:00:38;;;;;;;5.50;0.93;;;;;;;;;;4954669;29;20035;-43
2021/05/31 00:03:05;;;;;;;6.15;1.10;;;;;;;;;;4954698;29;20046;-43
2021/05/31 00:05:33;;;;;;;7.43;1.13;;;;;;;;;;4953339;28;20027;-42
2021/05/31 00:08:00;;;;;;;6.22;1.02;;;;;;;;;;4951093;28;20487;-42
2021/05/31 00:10:27;;;;;;;4.40;0.82;;;;;;;;;;4953839;28;20113;-42
2021/05/31 00:12:55;;;;;;;3.70;0.93;;;;;;;;;;4955310;29;20023;-42
2021/05/31 00:15:22;;;;;;;7.22;1.23;;;;;;;;;;4954378;29;20023;-42
2021/05/31 00:17:49;;;;;;;4.57;1.20;;;;;;;;;;4954169;29;20027;-42
2021/05/31 00:20:18;;;;;;;9.73;1.20;;;;;;;;;;4952678;28;20023;-42
2021/05/31 00:22:46;;;;;;;5.50;1.17;;;;;;;;;;4954939;29;20015;-42
2021/05/31 00:25:13;;;;;;;4.70;1.00;;;;;;;;;;4953896;29;20383;-42
2021/05/31 00:27:40;;;;;;;5.63;0.90;;;;;;;;;;4954758;29;20043;-42
2021/05/31 00:30:08;;;;;;;5.47;1.17;;;;;;;;;;4951706;28;20015;-42
2021/05/31 00:32:35;;;;;;;4.95;0.98;;;;;;;;;;4954638;29;20023;-42
2021/05/31 00:35:02;;;;;;;6.20;0.80;;;;;;;;;;4953891;29;20019;-42
2021/05/31 00:37:29;;;;;;;2.85;0.90;;;;;;;;;;4954054;29;20051;-42
2021/05/31 00:39:56;;;;;;;4.18;1.05;;;;;;;;;;4949494;29;20026;-42
2021/05/31 00:42:23;;;;;;;8.38;0.88;;;;;;;;;;4955769;28;20162;-42
2021/05/31 00:44:51;;;;;;;3.72;0.90;;;;;;;;;;4953998;29;20034;-40
2021/05/31 00:47:18;;;;;;;6.07;1.20;;;;;;;;;;4953557;29;20047;-43
2021/05/31 00:49:45;;;;;;;3.67;1.30;;;;;;;;;;4947423;28;20027;-42
2021/05/31 00:52:12;;;;;;;5.07;1.00;;;;;;;;;;4954151;29;20027;-42
2021/05/31 00:54:39;;;;;;;5.20;0.85;;;;;;;;;;4953682;29;20030;-41
2021/05/31 00:57:07;;;;;;;9.60;1.10;;;;;;;;;;4953818;29;20031;-41
2021/05/31 00:59:35;;;;;;;6.88;1.17;;;;;;;;;;4949520;28;20050;-41
2021/05/31 01:02:03;;;;;;;8.85;1.20;;;;;;;;;;4954290;29;20023;-40
2021/05/31 01:04:30;;;;;;;4.97;1.00;;;;;;;;;;4953845;29;20055;-41
2021/05/31 01:07:12;;;;;;;8.23;1.13;;;;;;;;;;4953341;29;20037;-44
2021/05/31 01:09:46;;;;;;;7.70;1.67;;;;;;;;;;4948573;29;20027;-45
2021/05/31 01:12:45;;;;;;;5.50;1.73;;;;;;;;;;4958000;28;20550;-45
2021/05/31 01:15:32;;;;;;;9.43;2.63;;;;;;;;;;4921493;28;20089;-44
2021/05/31 01:18:03;;;;;;;12.50;3.00;;;;;;;;;;4952318;28;20113;-44
2021/05/31 01:20:33;;;;;;;12.68;2.58;;;;;;;;;;4954929;28;20653;-44
2021/05/31 01:23:01;;;;;;;11.77;3.03;;;;;;;;;;4957794;28;20059;-45
2021/05/31 01:25:28;;;;;;;9.18;3.15;;;;;;;;;;4953551;28;20387;-45
2021/05/31 01:28:05;;;;;;;17.58;3.60;;;;;;;;;;4952978;28;20426;-44
2021/05/31 01:30:33;;;;;;;15.02;3.03;;;;;;;;;;4945719;28;20088;-45
2021/05/31 01:33:01;;;;;;;15.63;3.00;;;;;;;;;;4959460;28;20109;-45
2021/05/31 01:35:29;;;;;;;9.95;2.20;;;;;;;;;;4953046;28;20025;-44
2021/05/31 01:37:58;;;;;;;14.70;2.55;;;;;;;;;;4952957;28;20024;-45
2021/05/31 01:40:25;;;;;;;15.75;3.05;;;;;;;;;;4948277;28;20024;-45
2021/05/31 01:42:53;;;;;;;10.88;2.15;;;;;;;;;;4945321;28;20031;-44
2021/05/31 01:45:21;;;;;;;14.73;2.58;;;;;;;;;;4951093;28;20037;-45
2021/05/31 01:47:48;;;;;;;8.00;2.20;;;;;;;;;;4950773;29;20420;-42
2021/05/31 01:50:15;;;;;;;10.88;2.10;;;;;;;;;;4952189;29;20848;-45
2021/05/31 01:52:44;;;;;;;7.82;1.88;;;;;;;;;;4952033;29;20027;-41
2021/05/31 01:55:12;;;;;;;19.65;1.92;;;;;;;;;;4952852;29;20490;-45
2021/05/31 01:57:39;;;;;;;10.68;2.20;;;;;;;;;;4952560;29;20024;-43
2021/05/31 02:00:06;;;;;;;8.98;1.67;;;;;;;;;;4952905;29;20030;-41
2021/05/31 02:02:34;;;;;;;8.73;1.60;;;;;;;;;;4953083;29;20411;-41
2021/05/31 02:05:01;;;;;;;10.65;1.90;;;;;;;;;;4953493;29;20024;-41
2021/05/31 02:07:28;;;;;;;9.23;1.80;;;;;;;;;;4953130;29;20039;-42
2021/05/31 02:09:55;;;;;;;8.88;1.70;;;;;;;;;;4953707;29;20023;-41
2021/05/31 02:12:23;;;;;;;10.85;2.35;;;;;;;;;;4953402;29;20058;-42
2021/05/31 02:14:59;;;;;;;11.90;1.90;;;;;;;;;;4954091;29;20102;-45
2021/05/31 02:17:32;;;;;;;10.15;2.00;;;;;;;;;;4951966;29;20027;-45
2021/05/31 02:20:00;;;;;;;6.47;1.50;;;;;;;;;;4951234;29;20027;-41
2021/05/31 02:22:30;;;;;;;8.20;1.50;;;;;;;;;;4953822;29;20099;-41
2021/05/31 02:24:58;;;;;;;3.42;1.20;;;;;;;;;;4953536;29;20249;-43
2021/05/31 02:27:26;;;;;;;6.32;1.50;;;;;;;;;;4953433;29;20035;-43
2021/05/31 02:29:53;;;;;;;7.25;1.45;;;;;;;;;;4953452;29;20031;-47
2021/05/31 02:32:20;;;;;;;6.70;1.17;;;;;;;;;;4953408;29;20054;-44
2021/05/31 02:34:47;;;;;;;5.50;1.27;;;;;;;;;;4952833;29;20031;-44
2021/05/31 02:37:16;;;;;;;4.53;1.30;;;;;;;;;;4953205;29;20027;-46
2021/05/31 02:39:43;;;;;;;3.45;1.15;;;;;;;;;;4954276;29;20031;-45
2021/05/31 02:42:10;;;;;;;9.20;1.50;;;;;;;;;;4954331;29;20027;-45
2021/05/31 02:44:37;;;;;;;5.90;1.35;;;;;;;;;;4932855;29;20023;-45
2021/05/31 02:47:04;;;;;;;7.22;1.00;;;;;;;;;;4953667;29;20524;-44
2021/05/31 02:49:31;;;;;;;4.80;1.33;;;;;;;;;;4952421;29;20090;-43
2021/05/31 02:51:58;;;;;;;6.68;1.35;;;;;;;;;;4948796;29;20027;-45
2021/05/31 02:54:25;;;;;;;8.82;1.58;;;;;;;;;;4952730;29;20404;-45
2021/05/31 02:56:52;;;;;;;4.43;1.00;;;;;;;;;;4953549;29;20110;-46
2021/05/31 02:59:19;;;;;;;3.05;0.90;;;;;;;;;;4953549;29;20015;-46
2021/05/31 03:01:49;;;;;;;5.32;1.10;;;;;;;;;;4949450;29;20062;-46
2021/05/31 03:04:16;;;;;;;3.80;1.15;;;;;;;;;;4953826;29;20019;-47
2021/05/31 03:06:43;;;;;;;4.00;1.15;;;;;;;;;;4953494;29;20035;-45
2021/05/31 03:09:10;;;;;;;4.38;1.00;;;;;;;;;;4953645;29;20152;-46
2021/05/31 03:11:37;;;;;;;5.35;1.05;;;;;;;;;;4949499;28;20090;-45
2021/05/31 03:14:04;;;;;;;6.85;1.25;;;;;;;;;;4953537;29;20031;-45
2021/05/31 03:16:31;;;;;;;3.78;1.65;;;;;;;;;;4953756;29;20027;-45
2021/05/31 03:18:58;;;;;;;5.32;1.10;;;;;;;;;;4953580;29;20068;-45
2021/05/31 03:21:25;;;;;;;4.47;1.20;;;;;;;;;;4951422;28;20027;-45
2021/05/31 03:23:52;;;;;;;4.40;0.90;;;;;;;;;;4953655;29;20128;-46
2021/05/31 03:26:19;;;;;;;3.63;0.88;;;;;;;;;;4953738;29;20078;-46
2021/05/31 03:28:46;;;;;;;6.50;1.35;;;;;;;;;;4953302;29;20471;-45
2021/05/31 03:31:13;;;;;;;3.25;0.73;;;;;;;;;;4948953;29;20134;-46
2021/05/31 03:33:40;;;;;;;5.13;0.95;;;;;;;;;;4971421;28;20027;-45
2021/05/31 03:36:07;;;;;;;4.18;1.00;;;;;;;;;;4955577;28;20027;-45
2021/05/31 03:38:34;;;;;;;3.28;0.85;;;;;;;;;;4972708;28;20023;-46
2021/05/31 03:41:01;;;;;;;5.20;0.80;;;;;;;;;;4971938;28;20027;-44
2021/05/31 03:43:28;;;;;;;5.80;1.08;;;;;;;;;;4939222;29;20023;-45
2021/05/31 03:45:55;;;;;;;4.90;1.58;;;;;;;;;;4956582;29;20098;-45
2021/05/31 03:48:22;;;;;;;3.08;0.80;;;;;;;;;;4956602;29;20646;-44
2021/05/31 03:50:49;;;;;;;2.75;0.77;;;;;;;;;;4956755;29;20094;-46
2021/05/31 03:53:16;;;;;;;4.47;0.90;;;;;;;;;;4966518;28;20037;-45
2021/05/31 03:55:43;;;;;;;4.63;1.20;;;;;;;;;;4976246;28;20027;-46
2021/05/31 03:58:11;;;;;;;4.05;0.80;;;;;;;;;;4975998;28;20086;-45
2021/05/31 04:00:37;;;;;;;3.75;1.10;;;;;;;;;;4976060;28;20031;-45
2021/05/31 04:03:05;;;;;;;3.58;0.90;;;;;;;;;;4957317;28;20027;-45
2021/05/31 04:05:34;;;;;;;2.25;0.70;;;;;;;;;;4956519;29;20066;-45
2021/05/31 04:13:31;;;;;;;2.95;0.88;;;;;;;;;;4961024;28;20408;-45
2021/05/31 04:15:58;;;;;;;4.28;0.93;;;;;;;;;;4975893;28;20027;-44
2021/05/31 04:18:25;;;;;;;3.22;0.68;;;;;;;;;;4975663;28;20027;-45
2021/05/31 04:20:52;;;;;;;2.53;1.00;;;;;;;;;;4975352;28;20027;-46
2021/05/31 04:23:19;;;;;;;2.78;0.60;;;;;;;;;;4952011;28;20054;-45
2021/05/31 04:25:46;;;;;;;1.67;0.60;;;;;;;;;;4975509;28;20026;-45
2021/05/31 04:28:13;;;;;;;4.25;0.77;;;;;;;;;;4975383;28;20038;-47
2021/05/31 04:30:40;;;;;;;3.17;0.60;;;;;;;;;;4975311;28;20025;-43
2021/05/31 04:33:07;;;;;;;2.42;0.75;;;;;;;;;;4951370;28;20023;-47
2021/05/31 04:35:34;;;;;;;2.28;0.77;;;;;;;;;;4975623;28;20089;-45
2021/05/31 04:38:01;;;;;;;3.20;0.80;;;;;;;;;;4975262;28;20405;-45
2021/05/31 04:40:28;;;;;;;2.78;0.73;;;;;;;;;;4975221;28;20077;-45
2021/05/31 04:42:55;;;;;;;4.72;0.80;;;;;;;;;;4967042;28;20035;-44
2021/05/31 04:45:23;;;;;;;3.08;0.75;;;;;;;;;;4956057;29;20050;-46
2021/05/31 04:47:51;;;;;;;4.32;0.60;;;;;;;;;;4955676;29;20059;-45
2021/05/31 04:50:18;;;;;;;4.70;1.08;;;;;;;;;;4955756;29;20032;-45
2021/05/31 04:52:45;;;;;;;1.48;0.70;;;;;;;;;;4952318;28;20031;-43
2021/05/31 04:55:18;;;;;;;1.55;0.63;;;;;;;;;;4968091;28;20110;-45
2021/05/31 04:57:46;;;;;;;1.33;0.50;;;;;;;;;;4975433;28;20065;-45
2021/05/31 05:00:13;;;;;;;1.85;0.80;;;;;;;;;;4974416;28;20023;-44
2021/05/31 05:02:40;;;;;;;1.80;1.02;;;;;;;;;;4974248;28;20026;-42
2021/05/31 05:05:08;;;;;;;2.03;0.77;;;;;;;;;;4968252;28;20019;-45
2021/05/31 05:07:35;;;;;;;1.80;0.70;;;;;;;;;;4974914;28;20035;-45
2021/05/31 05:10:02;;;;;;;2.28;0.65;;;;;;;;;;4974633;28;20034;-43
2021/05/31 05:12:29;;;;;;;1.17;0.50;;;;;;;;;;4974761;28;20470;-45
2021/05/31 05:14:56;;;;;;;1.88;0.68;;;;;;;;;;4946146;29;20035;-45
2021/05/31 05:17:23;;;;;;;1.33;0.60;;;;;;;;;;4971433;28;20022;-45
2021/05/31 05:19:50;;;;;;;2.00;0.63;;;;;;;;;;4974253;28;20027;-44
2021/05/31 05:22:17;;;;;;;1.98;0.60;;;;;;;;;;4974492;28;20068;-44
2021/05/31 05:24:44;;;;;;;0.95;0.43;;;;;;;;;;4960841;28;20020;-45
2021/05/31 05:27:12;;;;;;;2.67;0.57;;;;;;;;;;4974608;28;20037;-45
2021/05/31 05:29:39;;;;;;;2.45;0.77;;;;;;;;;;4974107;28;20025;-44
2021/05/31 05:32:07;;;;;;;1.55;0.63;;;;;;;;;;4974570;28;20504;-44
2021/05/31 05:34:34;;;;;;;3.80;0.63;;;;;;;;;;4961280;28;20035;-43
2021/05/31 05:37:06;;;;;;;0.93;0.52;;;;;;;;;;4974582;28;20030;-45
2021/05/31 05:45:22;;;;;;;1.50;0.63;;;;;;;;;;4967566;28;20053;-45
2021/05/31 05:47:49;;;;;;;2.55;0.60;;;;;;;;;;4974073;28;20475;-44
2021/05/31 05:50:18;;;;;;;1.80;0.70;;;;;;;;;;4974031;28;20077;-47
2021/05/31 05:52:45;;;;;;;1.75;0.60;;;;;;;;;;4973553;28;20026;-45
2021/05/31 05:55:13;;;;;;;1.70;0.50;;;;;;;;;;4962802;28;20518;-46
2021/05/31 05:57:40;;;;;;;1.73;0.60;;;;;;;;;;4954906;29;20136;-45
2021/05/31 06:00:10;;;;;;;2.00;0.50;;;;;;;;;;4954013;29;20030;-45
2021/05/31 06:02:37;;;;;;;2.35;0.55;;;;;;;;;;4953775;28;20069;-45
2021/05/31 06:05:04;;;;;;;2.10;0.50;;;;;;;;;;4954294;28;20034;-44
2021/05/31 06:07:31;;;;;;;1.83;0.68;;;;;;;;;;4973658;28;20027;-46
2021/05/31 06:10:00;;;;;;;2.35;0.85;;;;;;;;;;4973688;28;20023;-45
2021/05/31 06:12:27;;;;;;;0.90;0.52;;;;;;;;;;4973696;28;20372;-45
2021/05/31 06:14:54;;;;;;;3.53;0.60;;;;;;;;;;4965228;28;20027;-43
2021/05/31 06:17:21;;;;;;;0.90;0.45;;;;;;;;;;4969475;28;20038;-44
2021/05/31 06:19:48;;;;;;;1.95;0.50;;;;;;;;;;4973821;28;20114;-45
2021/05/31 06:22:15;;;;;;;0.82;0.50;;;;;;;;;;4973401;28;20022;-44
2021/05/31 06:24:43;;;;;;;4.40;0.65;;;;;;;;;;4971429;28;20023;-46
2021/05/31 06:27:11;;;;;;;1.52;0.50;;;;;;;;;;4953138;28;20111;-45
2021/05/31 06:29:38;;;;;;;1.38;0.57;;;;;;;;;;4954164;29;20031;-45
2021/05/31 06:32:05;;;;;;;4.18;0.63;;;;;;;;;;4954116;29;20483;-44
2021/05/31 06:34:32;;;;;;;1.20;0.70;;;;;;;;;;4954275;29;20447;-45
2021/05/31 06:36:59;;;;;;;1.98;0.50;;;;;;;;;;4954049;28;20037;-44
2021/05/31 06:39:26;;;;;;;3.33;0.70;;;;;;;;;;4973702;28;20018;-44
2021/05/31 06:41:53;;;;;;;1.00;0.50;;;;;;;;;;4973187;28;20034;-44
2021/05/31 06:44:20;;;;;;;1.08;0.40;;;;;;;;;;4972868;28;20027;-45
2021/05/31 06:46:47;;;;;;;0.70;0.30;;;;;;;;;;4965163;28;20475;-45
2021/05/31 06:49:14;;;;;;;0.82;0.43;;;;;;;;;;4973690;28;20018;-44
2021/05/31 06:51:41;;;;;;;2.17;0.40;;;;;;;;;;4973085;28;20483;-44
2021/05/31 06:54:09;;;;;;;1.08;0.50;;;;;;;;;;4972854;28;20101;-45
2021/05/31 06:56:36;;;;;;;1.27;0.40;;;;;;;;;;4958441;28;20036;-45
2021/05/31 06:59:04;;;;;;;0.80;0.40;;;;;;;;;;4954007;29;20043;-47
2021/05/31 07:01:31;;;;;;;1.20;0.40;;;;;;;;;;4953796;29;20023;-46
2021/05/31 07:03:58;;;;;;;1.83;0.70;;;;;;;;;;4953526;29;20031;-45
2021/05/31 07:06:25;;;;;;;1.98;0.50;;;;;;;;;;4949034;29;20042;-44
2021/05/31 07:08:52;;;;;;;1.38;0.60;;;;;;;;;;4965488;28;20050;-44
2021/05/31 07:11:22;;;;;;;1.65;0.40;;;;;;;;;;4973275;28;20027;-44
2021/05/31 07:13:49;;;;;;;0.85;0.40;;;;;;;;;;4972771;28;20023;-44
2021/05/31 07:16:17;;;;;;;1.33;0.40;;;;;;;;;;4970056;28;20035;-43
2021/05/31 07:18:44;;;;;;;1.27;0.50;;;;;;;;;;4956932;28;20122;-44
2021/05/31 07:21:12;;;;;;;1.75;0.30;;;;;;;;;;4957654;29;20059;-44
2021/05/31 07:23:40;;;;;;;3.53;0.40;;;;;;;;;;4957195;29;20107;-45
2021/05/31 07:26:07;;;;;;;2.03;0.43;;;;;;;;;;4956420;29;20038;-44
2021/05/31 07:28:35;;;;;;;1.80;0.60;;;;;;;;;;4955125;28;20024;-44
2021/05/31 07:31:02;;;;;;;2.05;0.40;;;;;;;;;;4957313;29;20053;-45
2021/05/31 07:33:29;;;;;;;1.00;0.38;;;;;;;;;;4956911;29;20395;-44
2021/05/31 07:35:57;;;;;;;1.65;0.43;;;;;;;;;;4957119;29;20037;-44
2021/05/31 07:38:24;;;;;;;1.38;0.30;;;;;;;;;;4952651;29;20026;-44
2021/05/31 07:40:51;;;;;;;1.17;0.40;;;;;;;;;;4957160;29;20379;-44
2021/05/31 07:43:18;;;;;;;1.05;0.40;;;;;;;;;;4956945;29;20031;-44
2021/05/31 07:45:46;;;;;;;1.48;0.57;;;;;;;;;;4956441;29;20023;-44
2021/05/31 07:48:13;;;;;;;0.93;0.40;;;;;;;;;;4952196;29;20075;-44
2021/05/31 07:50:40;;;;;;;0.95;0.38;;;;;;;;;;4957346;29;20023;-44
2021/05/31 07:53:07;;;;;;;1.40;0.40;;;;;;;;;;4956589;29;20023;-44
2021/05/31 07:55:34;;;;;;;1.80;0.60;;;;;;;;;;4956818;29;20027;-44
2021/05/31 07:58:02;;;;;;;1.90;0.40;;;;;;;;;;4952220;29;20094;-44
2021/05/31 08:00:29;;;;;;;1.73;0.40;;;;;;;;;;4956904;29;20545;-44
2021/05/31 08:02:56;;;;;;;1.05;0.47;;;;;;;;;;4939112;29;20479;-46
2021/05/31 08:05:23;;;;;;;2.03;0.75;;;;;;;;;;4956684;29;20023;-45
2021/05/31 08:07:51;;;;;;;1.95;0.50;;;;;;;;;;4954107;28;20542;-46
2021/05/31 08:10:18;;;;;;;0.73;0.40;;;;;;;;;;4976220;28;20019;-44
2021/05/31 08:12:46;;;;;;;1.52;0.50;;;;;;;;;;4975862;28;20364;-44
2021/05/31 08:15:13;;;;;;;0.73;0.38;;;;;;;;;;4975549;28;20077;-44
2021/05/31 08:17:41;;;;;;;1.67;0.40;;;;;;;;;;4969868;28;20035;-43
2021/05/31 08:20:09;;;;;;;0.50;0.20;;;;;;;;;;4956341;28;20038;-44
2021/05/31 08:22:36;;;;;;;2.78;0.50;;;;;;;;;;4956575;29;20054;-44
2021/05/31 08:25:04;;;;;;;0.80;0.40;;;;;;;;;;4956249;29;20078;-45
2021/05/31 08:27:31;;;;;;;2.85;0.38;;;;;;;;;;4955228;28;20110;-43
2021/05/31 08:29:59;;;;;;;1.63;0.40;;;;;;;;;;4964763;28;20395;-44
2021/05/31 08:32:26;;;;;;;1.73;0.47;;;;;;;;;;4975430;28;20480;-43
2021/05/31 08:34:53;;;;;;;0.50;0.30;;;;;;;;;;4975269;28;20038;-44
2021/05/31 08:37:20;;;;;;;1.25;0.40;;;;;;;;;;4975520;28;20491;-44
2021/05/31 08:39:49;;;;;;;1.00;0.40;;;;;;;;;;4969333;28;20026;-46
2021/05/31 08:42:16;;;;;;;0.52;0.38;;;;;;;;;;4975270;28;20384;-46
2021/05/31 08:44:43;;;;;;;1.70;0.57;;;;;;;;;;4975008;28;20026;-44
2021/05/31 08:47:10;;;;;;;1.30;0.40;;;;;;;;;;4974703;28;20074;-44
2021/05/31 08:49:38;;;;;;;0.85;0.40;;;;;;;;;;4959087;28;20056;-44
2021/05/31 08:52:06;;;;;;;0.63;0.40;;;;;;;;;;4955962;29;20369;-46
2021/05/31 08:54:33;;;;;;;0.90;0.32;;;;;;;;;;4955511;29;20024;-46
2021/05/31 08:57:00;;;;;;;0.45;0.40;;;;;;;;;;4955664;29;20155;-44
2021/05/31 08:59:27;;;;;;;1.30;0.30;;;;;;;;;;4952082;28;20023;-45
2021/05/31 09:01:55;;;;;;;1.00;0.40;;;;;;;;;;4955778;29;20027;-45
2021/05/31 09:04:25;;;;;;;0.50;0.30;;;;;;;;;;4955326;29;20032;-44
2021/05/31 09:07:01;;;;;;;1.27;0.40;;;;;;;;;;4955369;29;20392;-44
2021/05/31 09:09:41;;;;;;;0.70;0.20;;;;;;;;;;4951293;28;20395;-45
2021/05/31 09:12:09;;;;;;;0.80;0.30;;;;;;;;;;4957673;28;20034;-46
2021/05/31 09:14:37;;;;;;;0.95;0.30;;;;;;;;;;4974494;28;20035;-46
2021/05/31 09:17:06;;;;;;;2.13;0.68;;;;;;;;;;4974689;28;20022;-45
2021/05/31 09:19:34;;;;;;;2.53;0.35;;;;;;;;;;4967724;28;20035;-46
2021/05/31 09:22:07;;;;;;;1.15;0.30;;;;;;;;;;4974568;28;20019;-45
2021/05/31 09:24:34;;;;;;;1.92;0.30;;;;;;;;;;4974326;28;20053;-45
2021/05/31 09:27:01;;;;;;;1.35;0.30;;;;;;;;;;4974160;28;20057;-44
2021/05/31 09:29:29;;;;;;;1.17;0.45;;;;;;;;;;4967627;28;20031;-45
2021/05/31 09:32:02;;;;;;;1.00;0.30;;;;;;;;;;4955044;28;20530;-45
2021/05/31 09:34:29;;;;;;;0.50;0.30;;;;;;;;;;4954933;29;20023;-45
2021/05/31 09:36:59;;;;;;;1.27;0.32;;;;;;;;;;4955109;28;20154;-43
2021/05/31 09:39:30;;;;;;;0.50;0.30;;;;;;;;;;4952169;29;20506;-43
2021/05/31 09:42:12;;;;;;;0.83;0.30;;;;;;;;;;4953366;28;20031;-44
2021/05/31 09:44:39;;;;;;;1.20;0.70;;;;;;;;;;4954540;29;20376;-45
2021/05/31 09:47:06;;;;;;;0.85;0.32;;;;;;;;;;4954503;29;20053;-44
2021/05/31 09:49:35;;;;;;;3.65;0.30;;;;;;;;;;4953469;28;20027;-43
2021/05/31 09:52:02;;;;;;;0.93;0.40;;;;;;;;;;4952771;28;20491;-44
2021/05/31 09:54:36;;;;;;;1.50;0.47;;;;;;;;;;4954739;29;20030;-44
2021/05/31 09:57:22;;;;;;;2.17;0.30;;;;;;;;;;4937560;29;20395;-44
2021/05/31 10:00:00;;;;;;;0.95;0.40;;;;;;;;;;4952958;29;20023;-43
2021/05/31 10:02:43;;;;;;;0.60;0.35;;;;;;;;;;4953137;29;20019;-44
2021/05/31 10:08:02;;;;;;;1.35;0.40;;;;;;;;;;4954255;29;20046;-44
2021/05/31 10:10:30;;;;;;;1.25;0.35;;;;;;;;;;4950355;28;20059;-43
2021/05/31 10:12:58;;;;;;;1.02;0.35;;;;;;;;;;4935350;29;20534;-44
2021/05/31 10:15:27;;;;;;;1.15;0.28;;;;;;;;;;4935551;29;20403;-44
2021/05/31 10:17:55;;;;;;;1.38;0.45;;;;;;;;;;4934873;29;20031;-46
2021/05/31 10:20:23;;;;;;;0.70;0.30;;;;;;;;;;4935428;29;20055;-44
2021/05/31 10:22:50;;;;;;;1.95;0.47;;;;;;;;;;4953415;28;20027;-44
2021/05/31 10:25:17;;;;;;;2.78;0.40;;;;;;;;;;4954236;29;20027;-44
2021/05/31 10:27:45;;;;;;;0.57;0.35;;;;;;;;;;4953690;29;20041;-44
2021/05/31 10:30:17;;;;;;;0.70;0.30;;;;;;;;;;4954094;29;20603;-44
2021/05/31 10:32:44;;;;;;;1.20;0.40;;;;;;;;;;4964484;28;20034;-45
2021/05/31 10:35:28;;;;;;;1.27;0.43;;;;;;;;;;4973593;28;20023;-45
2021/05/31 10:37:59;;;;;;;1.80;0.38;;;;;;;;;;4973073;28;20030;-45
2021/05/31 10:40:36;;;;;;;2.92;0.47;;;;;;;;;;4973283;28;20031;-44
2021/05/31 10:43:09;;;;;;;1.42;0.30;;;;;;;;;;4967051;28;20069;-44
2021/05/31 10:45:37;;;;;;;2.20;0.30;;;;;;;;;;4973152;28;20027;-47
2021/05/31 10:48:10;;;;;;;1.48;0.60;;;;;;;;;;4972897;28;20466;-45
2021/05/31 10:50:58;;;;;;;0.98;0.40;;;;;;;;;;4975066;28;20027;-44
2021/05/31 10:53:30;;;;;;;2.22;0.60;;;;;;;;;;4971330;28;20030;-44
2021/05/31 10:56:03;;;;;;;1.40;0.50;;;;;;;;;;4977307;28;20038;-44
2021/05/31 10:58:37;;;;;;;0.90;0.30;;;;;;;;;;4977370;28;20101;-44
2021/05/31 11:01:11;;;;;;;0.63;0.32;;;;;;;;;;4976330;28;20462;-42
2021/05/31 11:03:44;;;;;;;1.83;0.30;;;;;;;;;;4956181;28;20027;-44
2021/05/31 11:06:16;;;;;;;1.40;0.40;;;;;;;;;;4957596;29;20034;-44
2021/05/31 11:08:50;;;;;;;1.00;0.60;;;;;;;;;;4957748;29;20089;-46
2021/05/31 11:11:30;;;;;;;1.65;0.40;;;;;;;;;;4957454;29;20403;-43
2021/05/31 11:13:58;;;;;;;2.78;0.40;;;;;;;;;;4954706;29;20553;-45
2021/05/31 11:16:25;;;;;;;1.33;0.40;;;;;;;;;;4957585;29;20047;-44
2021/05/31 11:18:59;;;;;;;1.55;0.40;;;;;;;;;;4957327;29;20016;-45
2021/05/31 11:21:29;;;;;;;1.00;0.40;;;;;;;;;;4957380;29;20094;-47
2021/05/31 11:24:00;;;;;;;0.95;0.30;;;;;;;;;;4964798;28;20494;-45
2021/05/31 11:26:28;;;;;;;0.80;0.30;;;;;;;;;;4976681;28;20486;-44
2021/05/31 11:28:56;;;;;;;2.05;0.40;;;;;;;;;;4976566;28;20058;-45
2021/05/31 11:31:24;;;;;;;1.63;0.40;;;;;;;;;;4976563;28;20043;-44
2021/05/31 11:33:55;;;;;;;1.55;0.30;;;;;;;;;;4970522;28;20033;-44
2021/05/31 11:36:42;;;;;;;0.52;0.32;;;;;;;;;;4976519;28;20037;-45
2021/05/31 11:39:09;;;;;;;0.60;0.30;;;;;;;;;;4976190;28;20037;-43
2021/05/31 11:41:42;;;;;;;0.75;0.32;;;;;;;;;;4959840;28;20027;-46
2021/05/31 11:44:16;;;;;;;1.58;0.50;;;;;;;;;;4963765;28;20038;-44
2021/05/31 11:46:46;;;;;;;1.13;0.73;;;;;;;;;;4958685;28;20384;-45
2021/05/31 11:49:14;;;;;;;1.25;0.50;;;;;;;;;;4976176;28;20082;-43
2021/05/31 11:51:41;;;;;;;1.00;0.45;;;;;;;;;;4965567;28;20078;-43
2021/05/31 11:54:12;;;;;;;1.00;0.40;;;;;;;;;;4953810;28;20058;-46
2021/05/31 11:56:39;;;;;;;1.55;0.50;;;;;;;;;;4952985;28;20133;-47
2021/05/31 11:59:08;;;;;;;0.50;0.30;;;;;;;;;;4955593;28;20526;-47
2021/05/31 12:01:35;;;;;;;1.25;0.50;;;;;;;;;;4937741;29;20094;-46
2021/05/31 12:04:04;;;;;;;5.47;0.57;;;;;;;;;;4949804;29;20019;-45
2021/05/31 12:06:31;;;;;;;6.47;0.60;;;;;;;;;;4954577;28;20086;-44
2021/05/31 12:08:58;;;;;;;3.22;0.43;;;;;;;;;;4956542;29;20023;-39
2021/05/31 12:11:25;;;;;;;1.65;0.60;;;;;;;;;;4956212;28;20090;-41
2021/05/31 12:14:01;;;;;;;2.25;0.50;;;;;;;;;;4943044;29;20031;-40
2021/05/31 12:16:28;;;;;;;3.25;0.70;;;;;;;;;;4953637;29;20050;-43
2021/05/31 12:18:55;;;;;;;2.92;0.68;;;;;;;;;;4955445;29;20031;-43
2021/05/31 12:21:22;;;;;;;1.08;0.50;;;;;;;;;;4955255;29;20019;-44
2021/05/31 12:23:50;;;;;;;1.73;0.60;;;;;;;;;;4954082;28;20031;-41
2021/05/31 12:26:21;;;;;;;2.92;0.80;;;;;;;;;;4975234;28;20022;-41
2021/05/31 12:28:51;;;;;;;1.88;0.70;;;;;;;;;;4973071;28;20103;-41
2021/05/31 12:31:19;;;;;;;1.58;0.70;;;;;;;;;;4975266;28;20062;-45
2021/05/31 12:33:46;;;;;;;2.20;0.57;;;;;;;;;;4949519;28;20039;-41
2021/05/31 12:36:13;;;;;;;3.40;0.50;;;;;;;;;;4955477;29;20031;-38
2021/05/31 12:38:40;;;;;;;3.63;0.70;;;;;;;;;;4955811;29;20733;-46
2021/05/31 12:41:07;;;;;;;3.80;0.60;;;;;;;;;;4953929;28;20142;-43
2021/05/31 12:43:35;;;;;;;2.05;0.77;;;;;;;;;;4954460;29;20483;-55
2021/05/31 12:46:03;;;;;;;2.22;1.00;;;;;;;;;;4964665;28;20034;-58
2021/05/31 12:48:30;;;;;;;2.03;0.70;;;;;;;;;;4974906;28;20399;-49
2021/05/31 12:51:12;;;;;;;2.75;0.63;;;;;;;;;;4973934;28;20018;-59
2021/05/31 12:53:40;;;;;;;4.38;1.13;;;;;;;;;;4973323;28;20035;-49
2021/05/31 12:56:07;;;;;;;3.25;0.70;;;;;;;;;;4954798;28;20078;-47
2021/05/31 12:58:34;;;;;;;1.52;0.63;;;;;;;;;;4955674;29;20102;-51
2021/05/31 13:01:01;;;;;;;5.13;0.85;;;;;;;;;;4955173;29;20089;-47
2021/05/31 13:03:32;;;;;;;4.25;0.77;;;;;;;;;;4951885;29;20492;-51
2021/05/31 13:06:00;;;;;;;0.90;0.50;;;;;;;;;;4949033;28;20042;-47
2021/05/31 13:08:37;;;;;;;2.45;0.52;;;;;;;;;;4954457;29;20114;-49
2021/05/31 13:11:04;;;;;;;1.10;0.57;;;;;;;;;;4955232;29;20027;-51
2021/05/31 13:13:36;;;;;;;1.10;0.50;;;;;;;;;;4936546;29;20054;-48
2021/05/31 13:16:08;;;;;;;3.35;0.70;;;;;;;;;;4950363;28;20039;-49
2021/05/31 13:18:39;;;;;;;;;;;;;;;;;;4955669;29;20507;-50
2021/05/31 13:21:09;;;;;;;1.77;0.50;;;;;;;;;;4955068;29;19960;-51
2021/05/31 13:23:37;;;;;;;2.33;0.60;;;;;;;;;;4954938;29;20038;-48
2021/05/31 13:26:11;;;;;;;5.32;0.60;;;;;;;;;;4947949;28;20494;-44
2021/05/31 13:28:41;;;;;;;2.28;0.55;;;;;;;;;;4939395;29;20115;-49
2021/05/31 13:31:12;;;;;;;3.53;0.60;;;;;;;;;;4948550;29;20558;-46
2021/05/31 13:33:43;;;;;;;6.50;0.70;;;;;;;;;;4947977;29;20135;-48
2021/05/31 13:36:21;;;;;;;4.30;0.88;;;;;;;;;;4947996;29;20015;-48
2021/05/31 13:38:49;;;;;;;4.95;0.90;;;;;;;;;;4934899;28;20046;-40
2021/05/31 13:41:16;;;;;;;8.88;0.90;;;;;;;;;;4934050;29;20027;-46
2021/05/31 13:43:52;;;;;;;3.03;0.80;;;;;;;;;;4945454;29;20476;-43
2021/05/31 13:46:19;;;;;;;3.25;0.65;;;;;;;;;;4945423;29;20050;-46
2021/05/31 13:48:47;;;;;;;9.73;0.80;;;;;;;;;;4947871;29;20535;-46
2021/05/31 13:51:14;;;;;;;10.43;0.80;;;;;;;;;;4947137;29;20642;-46
2021/05/31 13:53:41;;;;;;;2.47;0.60;;;;;;;;;;4949805;29;20104;-48
2021/05/31 13:56:08;;;;;;;2.70;0.55;;;;;;;;;;4944542;28;20106;-47
2021/05/31 13:58:35;;;;;;;4.63;0.73;;;;;;;;;;4946970;29;20024;-48
2021/05/31 14:01:02;;;;;;;4.05;0.73;;;;;;;;;;4946732;29;20031;-49
2021/05/31 14:03:30;;;;;;;2.92;0.70;;;;;;;;;;4951453;29;20439;-41
2021/05/31 14:05:57;;;;;;;7.03;0.90;;;;;;;;;;4949022;28;20395;-41
2021/05/31 14:08:24;;;;;;;5.07;0.68;;;;;;;;;;4948608;28;20078;-42
2021/05/31 14:10:51;;;;;;;6.70;0.68;;;;;;;;;;4946209;29;20512;-47
2021/05/31 14:13:19;;;;;;;3.60;0.60;;;;;;;;;;4937386;29;20074;-43
2021/05/31 14:15:46;;;;;;;2.83;0.88;;;;;;;;;;4942187;29;20082;-42
2021/05/31 14:18:13;;;;;;;4.53;0.70;;;;;;;;;;4946030;28;20082;-44
2021/05/31 14:20:40;;;;;;;3.60;0.75;;;;;;;;;;4945114;29;20480;-42
2021/05/31 14:23:08;;;;;;;3.30;0.60;;;;;;;;;;4944967;28;20031;-45
2021/05/31 14:25:35;;;;;;;3.35;0.70;;;;;;;;;;4948145;28;20031;-41
2021/05/31 14:28:03;;;;;;;3.80;0.60;;;;;;;;;;4944482;28;20054;-40
2021/05/31 14:30:30;;;;;;;4.63;0.75;;;;;;;;;;4944597;28;20031;-38
2021/05/31 14:32:59;;;;;;;4.40;0.50;;;;;;;;;;4942465;29;20031;-41
2021/05/31 14:35:27;;;;;;;2.58;0.60;;;;;;;;;;4937351;29;20028;-40
2021/05/31 14:37:54;;;;;;;4.57;0.63;;;;;;;;;;4941812;28;20027;-42
2021/05/31 14:40:23;;;;;;;1.23;0.60;;;;;;;;;;4944276;29;20023;-37
2021/05/31 14:42:50;;;;;;;1.38;0.60;;;;;;;;;;4947925;28;20035;-45
2021/05/31 14:45:17;;;;;;;1.60;0.60;;;;;;;;;;4943051;28;20028;-47
2021/05/31 14:47:48;;;;;;;2.28;0.60;;;;;;;;;;4938529;28;20099;-47
2021/05/31 14:50:15;;;;;;;6.70;0.70;;;;;;;;;;4923784;29;20063;-40
2021/05/31 14:52:42;;;;;;;9.27;0.73;;;;;;;;;;4939932;29;20082;-47
2021/05/31 14:55:09;;;;;;;9.23;1.08;;;;;;;;;;4950120;28;20031;-42
2021/05/31 14:57:37;;;;;;;8.77;0.90;;;;;;;;;;4944955;28;20118;-41
2021/05/31 15:00:07;;;;;;;4.32;0.80;;;;;;;;;;4941306;28;20033;-37
2021/05/31 15:02:34;;;;;;;9.23;0.70;;;;;;;;;;4943645;29;20345;-42
2021/05/31 15:05:02;;;;;;;4.90;1.08;;;;;;;;;;4944299;29;20020;-35